createdAt,value
2022-09-10T00:01:23.621Z,8.37
2022-09-10T00:03:50.244Z,12.40
2022-09-10T00:06:18.681Z,12.63
2022-09-10T00:08:46.524Z,9.48
2022-09-10T00:11:14.999Z,8.40
2022-09-10T00:13:42.555Z,8.10
2022-09-10T00:16:11.620Z,10.45
2022-09-10T00:18:39.534Z,11.77
2022-09-10T00:21:10.211Z,6.85
2022-09-10T00:23:36.878Z,11.63
2022-09-10T00:26:27.208Z,8.10
2022-09-10T00:28:56.090Z,8.40
2022-09-10T00:31:23.529Z,12.77
2022-09-10T00:33:50.646Z,9.10
2022-09-10T00:36:29.839Z,7.55
2022-09-10T00:38:59.593Z,9.60
2022-09-10T00:41:26.708Z,9.65
2022-09-10T00:43:52.969Z,14.55
2022-09-10T00:46:25.383Z,9.95
2022-09-10T00:48:55.963Z,9.98
2022-09-10T00:51:23.688Z,9.43
2022-09-10T00:53:50.816Z,12.05
2022-09-10T00:56:17.610Z,10.90
2022-09-10T00:58:46.039Z,9.98
2022-09-10T01:01:13.438Z,8.73
2022-09-10T01:03:44.187Z,11.40
2022-09-10T01:06:10.983Z,10.52
2022-09-10T01:08:37.464Z,10.35
2022-09-10T01:11:27.730Z,13.35
2022-09-10T01:14:12.416Z,9.80
2022-09-10T01:17:05.896Z,12.40
2022-09-10T01:19:50.704Z,14.82
2022-09-10T01:22:49.228Z,13.30
2022-09-10T01:25:22.563Z,10.20
2022-09-10T01:27:52.757Z,8.45
2022-09-10T01:30:32.013Z,16.83
2022-09-10T01:33:13.507Z,13.18
2022-09-10T01:35:44.840Z,9.55
2022-09-10T01:38:20.608Z,12.18
2022-09-10T01:40:47.914Z,12.10
2022-09-10T01:43:15.058Z,9.90
2022-09-10T01:46:18.417Z,12.23
2022-09-10T01:48:55.180Z,9.23
2022-09-10T01:51:52.464Z,10.85
2022-09-10T01:54:41.755Z,12.30
2022-09-10T01:57:41.600Z,9.43
2022-09-10T02:00:14.595Z,13.25
2022-09-10T02:03:01.944Z,12.18
2022-09-10T02:05:31.509Z,12.18
2022-09-10T02:08:02.139Z,12.93
2022-09-10T02:10:28.790Z,14.53
2022-09-10T02:12:55.698Z,14.70
2022-09-10T02:15:25.135Z,15.93
2022-09-10T02:17:53.563Z,15.70
2022-09-10T02:20:22.033Z,14.10
2022-09-10T02:22:52.320Z,14.10
2022-09-10T02:25:18.879Z,15.38
2022-09-10T02:27:45.732Z,15.52
2022-09-10T02:30:12.922Z,14.13
2022-09-10T02:32:39.284Z,18.60
2022-09-10T02:35:06.118Z,15.17
2022-09-10T02:37:32.456Z,15.63
2022-09-10T02:39:59.354Z,15.85
2022-09-10T02:42:26.278Z,16.00
2022-09-10T02:44:53.541Z,17.33
2022-09-10T02:47:19.904Z,14.97
2022-09-10T02:49:46.264Z,21.17
2022-09-10T02:52:12.625Z,16.60
2022-09-10T02:54:40.112Z,21.42
2022-09-10T02:57:07.589Z,15.60
2022-09-10T02:59:34.086Z,16.00
2022-09-10T03:02:00.446Z,17.27
2022-09-10T03:04:26.872Z,21.50
2022-09-10T03:06:54.843Z,15.95
2022-09-10T03:09:22.332Z,18.80
2022-09-10T03:11:48.989Z,15.83
2022-09-10T03:14:20.151Z,18.17
2022-09-10T03:16:47.593Z,16.08
2022-09-10T03:19:14.593Z,17.35
2022-09-10T03:21:47.458Z,20.05
2022-09-10T03:24:15.448Z,23.93
2022-09-10T03:26:43.334Z,17.42
2022-09-10T03:29:10.060Z,18.63
2022-09-10T03:31:36.813Z,19.00
2022-09-10T03:34:04.169Z,20.77
2022-09-10T03:36:33.419Z,18.93
2022-09-10T03:38:59.825Z,19.42
2022-09-10T03:41:28.416Z,17.85
2022-09-10T03:43:55.423Z,18.85
2022-09-10T03:46:22.740Z,18.33
2022-09-10T03:48:52.118Z,19.43
2022-09-10T03:51:21.591Z,19.33
2022-09-10T03:53:48.266Z,18.45
2022-09-10T03:56:15.433Z,18.63
2022-09-10T03:58:41.802Z,18.92
2022-09-10T04:01:08.576Z,15.20
2022-09-10T04:03:35.003Z,17.77
2022-09-10T04:06:01.423Z,18.08
2022-09-10T04:08:27.824Z,22.42
2022-09-10T04:10:56.979Z,20.15
2022-09-10T04:13:23.390Z,18.30
2022-09-10T04:15:49.769Z,19.65
2022-09-10T04:18:16.224Z,19.40
2022-09-10T04:20:46.523Z,19.38
2022-09-10T04:23:12.878Z,21.00
2022-09-10T04:25:39.241Z,23.27
2022-09-10T04:28:05.793Z,24.02
2022-09-10T04:30:32.233Z,20.35
2022-09-10T04:32:58.620Z,23.42
2022-09-10T04:35:25.873Z,18.35
2022-09-10T04:37:52.227Z,19.50
2022-09-10T04:40:18.822Z,17.90
2022-09-10T04:42:45.197Z,19.83
2022-09-10T04:45:11.622Z,16.77
2022-09-10T04:47:38.040Z,21.58
2022-09-10T04:50:06.212Z,17.43
2022-09-10T04:52:33.118Z,17.50
2022-09-10T04:54:59.708Z,16.00
2022-09-10T04:57:26.149Z,17.13
2022-09-10T04:59:55.675Z,16.95
2022-09-10T05:02:22.054Z,17.57
2022-09-10T05:04:48.508Z,14.40
2022-09-10T05:07:14.963Z,18.10
2022-09-10T05:09:41.354Z,16.98
2022-09-10T05:12:07.935Z,15.20
2022-09-10T05:14:34.316Z,16.03
2022-09-10T05:17:00.801Z,19.52
2022-09-10T05:19:27.160Z,17.35
2022-09-10T05:21:53.542Z,17.77
2022-09-10T05:24:20.104Z,16.20
2022-09-10T05:26:46.499Z,17.70
2022-09-10T05:29:13.958Z,17.92
2022-09-10T05:31:40.931Z,20.02
2022-09-10T05:34:08.358Z,20.40
2022-09-10T05:36:35.276Z,15.65
2022-09-10T05:39:03.630Z,18.67
2022-09-10T05:41:31.077Z,20.10
2022-09-10T05:43:57.958Z,18.38
2022-09-10T05:46:24.630Z,16.80
2022-09-10T05:48:54.088Z,17.98
2022-09-10T05:51:21.766Z,16.43
2022-09-10T05:53:48.491Z,16.42
2022-09-10T05:56:14.938Z,15.90
2022-09-10T05:58:41.299Z,17.25
2022-09-10T06:01:07.682Z,13.45
2022-09-10T06:03:34.461Z,19.07
2022-09-10T06:06:00.898Z,14.48
2022-09-10T06:08:27.277Z,17.05
2022-09-10T06:11:05.877Z,13.38
2022-09-10T06:13:33.794Z,13.75
2022-09-10T06:16:00.675Z,12.40
2022-09-10T06:18:27.603Z,12.27
2022-09-10T06:21:10.973Z,14.80
2022-09-10T06:23:37.488Z,13.68
2022-09-10T06:26:06.552Z,14.63
2022-09-10T06:28:33.751Z,11.47
2022-09-10T06:31:00.712Z,13.65
2022-09-10T06:33:27.130Z,11.63
2022-09-10T06:35:57.787Z,16.05
2022-09-10T06:38:25.152Z,12.10
2022-09-10T06:40:55.923Z,14.57
2022-09-10T06:43:23.770Z,12.00
2022-09-10T06:45:53.003Z,11.93
2022-09-10T06:51:10.064Z,14.30
2022-09-10T06:53:37.139Z,14.30
2022-09-10T06:56:05.879Z,17.25
2022-09-10T06:58:35.757Z,15.88
2022-09-10T07:01:13.827Z,12.50
2022-09-10T07:03:41.200Z,15.52
2022-09-10T07:06:10.605Z,14.37
2022-09-10T07:08:37.553Z,18.00
2022-09-10T07:11:07.977Z,16.35
2022-09-10T07:13:35.436Z,14.38
2022-09-10T07:16:01.995Z,14.45
2022-09-10T07:18:28.772Z,20.17
2022-09-10T07:21:06.977Z,14.10
2022-09-10T07:23:33.461Z,15.98
2022-09-10T07:26:05.156Z,15.93
2022-09-10T07:28:32.010Z,16.27
2022-09-10T07:30:59.200Z,15.40
2022-09-10T07:33:25.769Z,13.25
2022-09-10T07:35:52.258Z,18.02
2022-09-10T07:38:20.552Z,14.70
2022-09-10T07:40:48.261Z,16.52
2022-09-10T07:43:15.391Z,17.57
2022-09-10T07:45:41.885Z,14.45
2022-09-10T07:48:08.401Z,14.75
2022-09-10T07:50:35.117Z,13.00
2022-09-10T07:53:01.538Z,16.50
2022-09-10T07:55:29.020Z,15.77
2022-09-10T07:57:59.511Z,15.43
2022-09-10T08:00:26.569Z,12.98
2022-09-10T08:02:52.987Z,14.93
2022-09-10T08:05:19.359Z,13.40
2022-09-10T08:07:46.051Z,12.77
2022-09-10T08:10:13.352Z,13.15
2022-09-10T08:12:40.770Z,12.20
2022-09-10T08:15:09.321Z,10.63
2022-09-10T08:17:36.762Z,12.73
2022-09-10T08:20:08.407Z,13.77
2022-09-10T08:22:35.246Z,9.73
2022-09-10T08:25:02.498Z,11.10
2022-09-10T08:27:28.965Z,12.20
2022-09-10T08:29:56.324Z,10.95
2022-09-10T08:32:23.166Z,13.33
2022-09-10T08:34:49.745Z,12.48
2022-09-10T08:37:16.796Z,11.35
2022-09-10T08:39:43.234Z,16.42
2022-09-10T08:42:32.141Z,11.85
2022-09-10T08:45:05.082Z,11.17
2022-09-10T08:47:53.465Z,11.32
2022-09-10T08:50:26.456Z,11.50
2022-09-10T08:52:59.402Z,13.25
2022-09-10T08:55:31.728Z,12.80
2022-09-10T08:58:03.231Z,9.83
2022-09-10T09:00:37.743Z,11.07
2022-09-10T09:03:14.637Z,14.55
2022-09-10T09:05:47.584Z,13.57
2022-09-10T09:08:17.736Z,10.13
2022-09-10T09:10:49.410Z,11.93
2022-09-10T09:13:47.693Z,9.80
2022-09-10T09:16:22.047Z,11.95
2022-09-10T09:19:23.261Z,11.27
2022-09-10T09:21:59.114Z,8.18
2022-09-10T09:24:47.299Z,10.17
2022-09-10T09:27:20.190Z,9.52
2022-09-10T09:30:03.990Z,11.13
2022-09-10T09:32:34.543Z,11.40
2022-09-10T09:35:16.806Z,11.52
2022-09-10T09:37:48.299Z,7.87
2022-09-10T09:40:37.251Z,7.70
2022-09-10T09:43:24.240Z,9.05
2022-09-10T09:45:53.510Z,8.70
2022-09-10T09:48:21.836Z,8.43
2022-09-10T09:50:51.802Z,13.03
2022-09-10T09:53:22.723Z,8.90
2022-09-10T09:55:55.553Z,8.85
2022-09-10T09:58:21.903Z,9.80
2022-09-10T10:00:52.899Z,7.45
2022-09-10T10:03:25.086Z,7.90
2022-09-10T10:06:10.239Z,9.05
2022-09-10T10:08:52.915Z,6.53
2022-09-10T10:11:21.437Z,6.93
2022-09-10T10:13:51.474Z,5.85
2022-09-10T10:16:26.837Z,5.77
2022-09-10T10:18:53.314Z,4.47
2022-09-10T10:21:34.695Z,4.93
2022-09-10T10:24:01.121Z,4.18
2022-09-10T10:26:33.187Z,3.67
2022-09-10T10:29:07.078Z,4.63
2022-09-10T10:31:43.266Z,3.83
2022-09-10T10:34:21.967Z,5.40
2022-09-10T10:37:16.496Z,4.00
2022-09-10T10:39:45.847Z,5.38
2022-09-10T10:42:29.227Z,4.00
2022-09-10T10:45:18.011Z,4.38
2022-09-10T10:48:09.871Z,4.60
2022-09-10T10:51:01.839Z,5.03
2022-09-10T10:53:51.420Z,5.13
2022-09-10T10:56:27.853Z,4.03
2022-09-10T10:59:29.752Z,4.60
2022-09-10T11:02:14.001Z,4.28
2022-09-10T11:04:46.611Z,5.55
2022-09-10T11:07:20.987Z,3.33
2022-09-10T11:10:03.931Z,1.97
2022-09-10T11:12:39.925Z,2.38
2022-09-10T11:15:25.407Z,3.08
2022-09-10T11:17:59.774Z,4.30
2022-09-10T11:20:38.878Z,3.00
2022-09-10T11:23:30.255Z,3.13
2022-09-10T11:26:21.528Z,5.07
2022-09-10T11:29:03.620Z,3.85
2022-09-10T11:31:35.951Z,3.10
2022-09-10T11:34:09.377Z,3.25
2022-09-10T11:36:49.918Z,3.50
2022-09-10T11:39:23.905Z,2.35
2022-09-10T11:41:54.672Z,1.73
2022-09-10T11:44:51.205Z,5.20
2022-09-10T11:47:29.512Z,3.75
2022-09-10T11:50:35.089Z,2.57
2022-09-10T11:53:02.430Z,4.82
2022-09-10T11:55:51.869Z,2.80
2022-09-10T11:58:49.089Z,3.33
2022-09-10T12:02:02.861Z,3.80
2022-09-10T12:04:58.886Z,2.70
2022-09-10T12:07:49.456Z,4.68
2022-09-10T12:10:34.915Z,2.17
2022-09-10T12:13:01.548Z,3.83
2022-09-10T12:15:31.177Z,2.17
2022-09-10T12:18:04.836Z,3.43
2022-09-10T12:20:42.175Z,2.83
2022-09-10T12:23:18.243Z,2.00
2022-09-10T12:25:44.961Z,1.83
2022-09-10T12:28:42.307Z,3.42
2022-09-10T12:31:20.120Z,2.97
2022-09-10T12:33:46.437Z,1.92
2022-09-10T12:36:14.843Z,1.48
2022-09-10T12:39:21.616Z,3.95
2022-09-10T12:41:48.331Z,3.35
2022-09-10T12:44:29.230Z,8.90
2022-09-10T12:47:18.564Z,1.85
2022-09-10T12:50:02.826Z,2.95
2022-09-10T12:52:35.199Z,1.73
2022-09-10T12:55:23.423Z,2.28
2022-09-10T12:57:56.752Z,2.97
2022-09-10T13:00:25.444Z,2.78
2022-09-10T13:03:08.578Z,3.63
2022-09-10T13:05:53.273Z,3.67
2022-09-10T13:08:33.910Z,3.03
2022-09-10T13:11:01.248Z,3.03
2022-09-10T13:13:52.095Z,4.35
2022-09-10T13:16:38.315Z,2.75
2022-09-10T13:19:13.832Z,2.92
2022-09-10T13:21:40.162Z,6.40
2022-09-10T13:24:35.992Z,4.03
2022-09-10T13:27:10.246Z,5.70
2022-09-10T13:29:40.019Z,4.68
2022-09-10T13:32:32.011Z,5.05
2022-09-10T13:35:11.130Z,3.55
2022-09-10T13:38:03.091Z,5.50
2022-09-10T13:40:41.411Z,3.35
2022-09-10T13:43:20.774Z,4.53
2022-09-10T13:45:52.244Z,3.33
2022-09-10T13:48:28.737Z,3.03
2022-09-10T13:51:23.237Z,8.17
2022-09-10T13:53:50.138Z,3.63
2022-09-10T13:56:25.117Z,3.50
2022-09-10T13:58:57.024Z,6.28
2022-09-10T14:01:53.151Z,4.55
2022-09-10T14:04:27.198Z,4.70
2022-09-10T14:07:01.717Z,3.47
2022-09-10T14:09:29.190Z,6.65
2022-09-10T14:11:59.681Z,5.22
2022-09-10T14:14:30.163Z,4.97
2022-09-10T14:17:02.777Z,3.47
2022-09-10T14:20:01.321Z,3.65
2022-09-10T14:22:31.306Z,4.43
2022-09-10T14:25:00.637Z,5.85
2022-09-10T14:27:28.332Z,3.42
2022-09-10T14:29:56.492Z,5.73
2022-09-10T14:32:22.860Z,3.78
2022-09-10T14:34:49.495Z,3.13
2022-09-10T14:37:36.775Z,4.43
2022-09-10T14:40:23.479Z,2.50
2022-09-10T14:42:50.580Z,3.90
2022-09-10T14:45:49.888Z,3.92
2022-09-10T14:48:38.445Z,4.38
2022-09-10T14:51:20.435Z,5.10
2022-09-10T14:53:51.623Z,3.13
2022-09-10T14:56:37.603Z,4.77
2022-09-10T14:59:27.590Z,5.13
2022-09-10T15:01:54.822Z,5.22
2022-09-10T15:04:23.696Z,4.50
2022-09-10T15:06:54.547Z,2.63
2022-09-10T15:09:21.457Z,4.83
2022-09-10T15:11:58.375Z,5.68
2022-09-10T15:14:25.638Z,3.67
2022-09-10T15:16:52.259Z,4.70
2022-09-10T15:19:19.624Z,3.50
2022-09-10T15:21:46.700Z,4.37
2022-09-10T15:24:15.411Z,3.53
2022-09-10T15:26:42.616Z,6.18
2022-09-10T15:29:09.758Z,4.75
2022-09-10T15:31:36.739Z,4.25
2022-09-10T15:34:06.396Z,6.30
2022-09-10T15:36:34.013Z,5.28
2022-09-10T15:39:00.588Z,2.97
2022-09-10T15:41:27.719Z,2.85
2022-09-10T15:43:54.191Z,3.38
2022-09-10T15:46:24.257Z,2.27
2022-09-10T15:48:54.059Z,4.43
2022-09-10T15:51:23.165Z,3.70
2022-09-10T15:53:52.293Z,2.85
2022-09-10T15:56:20.377Z,4.47
2022-09-10T15:58:55.187Z,4.40
2022-09-10T16:01:23.173Z,6.35
2022-09-10T16:03:51.789Z,3.47
2022-09-10T16:06:22.079Z,2.38
2022-09-10T16:08:53.145Z,4.88
2022-09-10T16:11:20.085Z,6.50
2022-09-10T16:13:46.836Z,2.92
2022-09-10T16:16:18.016Z,3.35
2022-09-10T16:18:45.589Z,2.58
2022-09-10T16:21:18.410Z,3.05
2022-09-10T16:23:46.751Z,3.03
2022-09-10T16:26:17.789Z,6.25
2022-09-10T16:28:56.253Z,4.50
2022-09-10T16:31:22.679Z,4.97
2022-09-10T16:33:54.519Z,4.30
2022-09-10T16:36:22.235Z,4.13
2022-09-10T16:38:53.201Z,4.38
2022-09-10T16:41:20.141Z,4.88
2022-09-10T16:43:46.821Z,3.35
2022-09-10T16:46:13.549Z,4.32
2022-09-10T16:48:42.908Z,4.63
2022-09-10T16:51:15.635Z,4.38
2022-09-10T16:53:47.433Z,5.38
2022-09-10T16:56:16.362Z,4.25
2022-09-10T16:58:47.064Z,5.28
2022-09-10T17:01:14.976Z,6.03
2022-09-10T17:03:43.848Z,6.35
2022-09-10T17:06:24.267Z,6.82
2022-09-10T17:08:53.015Z,6.93
2022-09-10T17:11:20.647Z,8.88
2022-09-10T17:13:47.046Z,5.53
2022-09-10T17:16:24.002Z,6.10
2022-09-10T17:19:04.439Z,5.78
2022-09-10T17:21:32.297Z,7.53
2022-09-10T17:23:59.521Z,7.45
2022-09-10T17:26:27.126Z,6.10
2022-09-10T17:28:57.979Z,5.78
2022-09-10T17:31:25.025Z,6.13
2022-09-10T17:33:51.682Z,7.97
2022-09-10T17:36:19.683Z,9.55
2022-09-10T17:38:46.209Z,7.67
2022-09-10T17:41:15.557Z,9.43
2022-09-10T17:43:43.695Z,5.63
2022-09-10T17:46:15.198Z,6.93
2022-09-10T17:48:45.835Z,9.73
2022-09-10T17:51:14.680Z,7.87
2022-09-10T17:53:41.585Z,8.20
2022-09-10T17:56:11.155Z,7.00
2022-09-10T17:58:38.296Z,8.35
2022-09-10T18:01:13.970Z,6.75
2022-09-10T18:03:40.886Z,10.10
2022-09-10T18:06:09.754Z,6.45
2022-09-10T18:08:40.085Z,5.03
2022-09-10T18:11:09.407Z,7.32
2022-09-10T18:13:36.812Z,7.22
2022-09-10T18:16:12.448Z,6.80
2022-09-10T18:18:39.410Z,6.05
2022-09-10T18:21:27.368Z,11.20
2022-09-10T18:24:00.081Z,5.57
2022-09-10T18:26:28.916Z,7.97
2022-09-10T18:29:09.113Z,9.47
2022-09-10T18:31:38.639Z,8.43
2022-09-10T18:34:08.318Z,4.95
2022-09-10T18:36:34.937Z,5.47
2022-09-10T18:39:05.915Z,8.13
2022-09-10T18:41:36.539Z,9.37
2022-09-10T18:44:05.946Z,9.98
2022-09-10T18:46:33.380Z,8.30
2022-09-10T18:49:00.378Z,7.15
2022-09-10T18:51:28.638Z,10.23
2022-09-10T18:53:58.285Z,8.30
2022-09-10T18:56:27.352Z,8.02
2022-09-10T18:58:56.916Z,8.48
2022-09-10T19:01:24.438Z,8.65
2022-09-10T19:03:51.359Z,12.88
2022-09-10T19:06:21.067Z,10.17
2022-09-10T19:08:49.411Z,8.02
2022-09-10T19:11:19.239Z,8.65
2022-09-10T19:13:53.984Z,7.03
2022-09-10T19:16:22.963Z,8.30
2022-09-10T19:18:51.572Z,11.07
2022-09-10T19:21:20.084Z,8.07
2022-09-10T19:23:47.982Z,8.65
2022-09-10T19:26:14.571Z,8.57
2022-09-10T19:28:42.069Z,7.78
2022-09-10T19:31:10.672Z,8.70
2022-09-10T19:33:37.473Z,7.93
2022-09-10T19:36:06.282Z,9.00
2022-09-10T19:38:37.731Z,12.38
2022-09-10T19:41:10.035Z,8.70
2022-09-10T19:43:36.688Z,10.77
2022-09-10T19:46:04.579Z,8.60
2022-09-10T19:48:31.098Z,9.13
2022-09-10T19:50:57.705Z,10.60
2022-09-10T19:53:24.823Z,9.15
2022-09-10T19:55:51.555Z,11.77
2022-09-10T19:58:18.888Z,11.60
2022-09-10T20:00:47.433Z,8.82
2022-09-10T20:03:14.714Z,11.30
2022-09-10T20:05:42.640Z,7.63
2022-09-10T20:08:09.879Z,11.70
2022-09-10T20:10:37.709Z,10.55
2022-09-10T20:13:04.852Z,9.65
2022-09-10T20:15:32.028Z,12.57
2022-09-10T20:17:58.573Z,10.30
2022-09-10T20:20:24.917Z,11.97
2022-09-10T20:22:51.591Z,8.30
2022-09-10T20:25:18.179Z,9.15
2022-09-10T20:27:44.600Z,13.80
2022-09-10T20:30:11.730Z,11.23
2022-09-10T20:32:38.071Z,9.40
2022-09-10T20:35:04.774Z,9.48
2022-09-10T20:37:31.108Z,9.02
2022-09-10T20:39:58.621Z,10.00
2022-09-10T20:42:27.759Z,11.40
2022-09-10T20:44:55.406Z,13.53
2022-09-10T20:47:24.198Z,13.07
2022-09-10T20:49:50.624Z,12.57
2022-09-10T20:52:17.417Z,14.10
2022-09-10T20:54:43.854Z,12.10
2022-09-10T20:57:11.391Z,11.63
2022-09-10T20:59:37.756Z,14.25
2022-09-10T21:02:04.240Z,13.88
2022-09-10T21:04:32.715Z,13.45
2022-09-10T21:06:59.087Z,15.13
2022-09-10T21:09:25.506Z,14.03
2022-09-10T21:11:51.862Z,14.70
2022-09-10T21:14:18.660Z,15.05
2022-09-10T21:16:47.139Z,13.27
2022-09-10T21:19:17.131Z,13.40
2022-09-10T21:21:45.283Z,14.80
2022-09-10T21:24:14.618Z,10.85
2022-09-10T21:26:43.150Z,11.43
2022-09-10T21:29:14.992Z,13.23
2022-09-10T21:31:42.031Z,12.52
2022-09-10T21:34:08.930Z,12.50
2022-09-10T21:36:37.373Z,11.27
2022-09-10T21:39:06.670Z,12.00
2022-09-10T21:41:35.663Z,13.23
2022-09-10T21:44:04.802Z,13.73
2022-09-10T21:46:32.411Z,17.93
2022-09-10T21:48:59.478Z,14.20
2022-09-10T21:51:26.292Z,12.57
2022-09-10T21:53:59.171Z,14.43
2022-09-10T21:56:27.794Z,14.00
2022-09-10T21:58:55.738Z,11.87
2022-09-10T22:01:24.407Z,14.95
2022-09-10T22:03:54.675Z,16.05
2022-09-10T22:06:23.774Z,14.27
2022-09-10T22:08:53.193Z,15.10
2022-09-10T22:11:23.978Z,13.63
2022-09-10T22:13:52.930Z,19.17
2022-09-10T22:16:20.821Z,16.00
2022-09-10T22:18:47.537Z,20.55
2022-09-10T22:21:14.895Z,15.82
2022-09-10T22:23:41.486Z,14.30
2022-09-10T22:26:10.908Z,16.98
2022-09-10T22:28:38.284Z,14.80
2022-09-10T22:31:12.957Z,16.65
2022-09-10T22:33:41.148Z,12.50
2022-09-10T22:36:15.699Z,15.13
2022-09-10T22:38:53.674Z,13.45
2022-09-10T22:41:23.065Z,11.52
2022-09-10T22:43:50.184Z,12.68
2022-09-10T22:46:17.729Z,16.10
2022-09-10T22:48:45.436Z,16.07
2022-09-10T22:51:14.881Z,17.83
2022-09-10T22:53:43.243Z,19.77
2022-09-10T22:56:11.935Z,18.25
2022-09-10T22:58:39.571Z,17.55
2022-09-10T23:01:12.657Z,21.03
2022-09-10T23:03:39.482Z,18.88
2022-09-10T23:06:09.338Z,16.90
2022-09-10T23:08:36.800Z,17.95
2022-09-10T23:11:15.268Z,20.77
2022-09-10T23:13:43.256Z,16.80
2022-09-10T23:16:21.773Z,20.33
2022-09-10T23:18:50.669Z,19.00
2022-09-10T23:21:20.562Z,18.13
2022-09-10T23:23:48.625Z,19.77
2022-09-10T23:26:17.191Z,19.73
2022-09-10T23:28:44.759Z,17.45
2022-09-10T23:31:15.491Z,21.23
2022-09-10T23:33:43.796Z,18.00
2022-09-10T23:36:13.992Z,19.98
2022-09-10T23:38:42.639Z,18.43
2022-09-10T23:41:11.875Z,21.17
2022-09-10T23:43:39.320Z,13.75
2022-09-10T23:46:09.139Z,18.35
2022-09-10T23:48:36.749Z,20.27
2022-09-10T23:51:04.064Z,20.70
2022-09-10T23:53:32.380Z,18.88
2022-09-10T23:55:59.330Z,20.67
2022-09-10T23:58:25.978Z,17.52
